createdAt,value
2019-01-11T00:02:22.532Z,100.00
2019-01-11T00:04:51.953Z,100.00
2019-01-11T00:07:21.449Z,100.00
2019-01-11T00:09:50.960Z,100.00
2019-01-11T00:12:20.389Z,100.00
2019-01-11T00:14:49.785Z,100.00
2019-01-11T00:17:19.351Z,100.00
2019-01-11T00:19:48.831Z,100.00
2019-01-11T00:22:18.236Z,100.00
2019-01-11T00:24:47.670Z,100.00
2019-01-11T00:27:17.197Z,100.00
2019-01-11T00:29:46.642Z,100.00
2019-01-11T00:32:16.095Z,100.00
2019-01-11T00:34:45.496Z,100.00
2019-01-11T00:37:15.004Z,100.00
2019-01-11T00:39:44.515Z,100.00
2019-01-11T00:42:13.912Z,100.00
2019-01-11T00:44:43.405Z,100.00
2019-01-11T00:47:13.081Z,100.00
2019-01-11T00:49:42.584Z,100.00
2019-01-11T00:52:11.984Z,100.00
2019-01-11T00:54:41.509Z,100.00
2019-01-11T00:57:10.911Z,100.00
2019-01-11T00:59:40.323Z,100.00
2019-01-11T01:02:10.068Z,100.00
2019-01-11T01:04:39.669Z,100.00
2019-01-11T01:07:09.179Z,100.00
2019-01-11T01:09:38.623Z,100.00
2019-01-11T01:12:08.210Z,100.00
2019-01-11T01:14:37.685Z,100.00
2019-01-11T01:17:07.360Z,100.00
2019-01-11T01:19:36.864Z,100.00
2019-01-11T01:22:06.514Z,100.00
2019-01-11T01:24:36.086Z,100.00
2019-01-11T01:27:05.998Z,100.00
2019-01-11T01:29:35.427Z,100.00
2019-01-11T01:32:05.066Z,100.00
2019-01-11T01:34:34.476Z,100.00
2019-01-11T01:37:04.378Z,100.00
2019-01-11T01:39:33.909Z,100.00
2019-01-11T01:42:03.309Z,100.00
2019-01-11T01:44:32.703Z,100.00
2019-01-11T01:47:02.402Z,100.00
2019-01-11T01:49:31.872Z,100.00
2019-01-11T01:52:01.273Z,100.00
2019-01-11T01:54:30.730Z,100.00
2019-01-11T01:57:00.244Z,100.00
2019-01-11T01:59:29.745Z,100.00
2019-01-11T02:01:59.326Z,100.00
2019-01-11T02:04:28.748Z,100.00
2019-01-11T02:06:58.234Z,100.00
2019-01-11T02:09:27.896Z,99.32
2019-01-11T02:11:57.301Z,98.88
2019-01-11T02:14:26.812Z,97.72
2019-01-11T02:16:56.300Z,97.11
2019-01-11T02:19:25.761Z,96.78
2019-01-11T02:21:55.428Z,95.79
2019-01-11T02:24:26.077Z,96.58
2019-01-11T02:26:55.533Z,96.77
2019-01-11T02:29:24.938Z,97.05
2019-01-11T02:31:54.455Z,97.64
2019-01-11T02:34:23.996Z,98.16
2019-01-11T02:36:53.394Z,98.14
2019-01-11T02:39:22.786Z,98.14
2019-01-11T02:41:52.461Z,98.03
2019-01-11T02:44:21.951Z,98.31
2019-01-11T02:46:51.360Z,98.66
2019-01-11T02:49:20.805Z,98.62
2019-01-11T02:51:50.337Z,98.05
2019-01-11T02:54:19.748Z,97.94
2019-01-11T02:56:49.271Z,96.96
2019-01-11T02:59:18.789Z,96.76
2019-01-11T03:01:48.199Z,96.50
2019-01-11T03:04:17.681Z,95.56
2019-01-11T03:06:47.153Z,95.67
2019-01-11T03:09:16.639Z,94.18
2019-01-11T03:11:46.081Z,93.80
2019-01-11T03:14:15.461Z,93.09
2019-01-11T03:16:44.960Z,92.96
2019-01-11T03:19:14.501Z,92.89
2019-01-11T03:21:43.981Z,92.97
2019-01-11T03:24:14.660Z,91.66
2019-01-11T03:26:44.179Z,91.00
2019-01-11T03:29:13.663Z,90.81
2019-01-11T03:31:43.064Z,90.27
2019-01-11T03:34:12.592Z,89.87
2019-01-11T03:36:47.866Z,89.15
2019-01-11T03:39:17.294Z,88.98
2019-01-11T03:42:05.688Z,89.64
2019-01-11T03:44:35.371Z,89.53
2019-01-11T03:47:05.039Z,90.09
2019-01-11T03:49:34.531Z,90.04
2019-01-11T03:52:04.262Z,89.74
2019-01-11T03:54:33.752Z,89.68
2019-01-11T03:57:03.188Z,90.02
2019-01-11T03:59:32.653Z,89.98
2019-01-11T04:02:06.357Z,89.91
2019-01-11T04:04:50.727Z,90.15
2019-01-11T04:07:20.435Z,90.30
2019-01-11T04:09:49.893Z,89.98
2019-01-11T04:12:19.393Z,89.63
2019-01-11T04:14:48.826Z,90.74
2019-01-11T04:17:18.461Z,90.52
2019-01-11T04:19:47.941Z,90.22
2019-01-11T04:22:30.981Z,89.40
2019-01-11T04:25:06.607Z,88.95
2019-01-11T04:27:36.244Z,88.99
2019-01-11T04:30:12.117Z,89.30
2019-01-11T04:32:41.560Z,89.10
2019-01-11T04:35:11.044Z,89.26
2019-01-11T04:37:41.117Z,88.97
2019-01-11T04:40:12.009Z,89.09
2019-01-11T04:42:41.407Z,88.86
2019-01-11T04:45:11.213Z,89.10
2019-01-11T04:47:40.767Z,89.00
2019-01-11T04:50:12.147Z,88.89
2019-01-11T04:52:41.679Z,88.40
2019-01-11T04:55:11.569Z,88.33
2019-01-11T04:57:40.969Z,87.88
2019-01-11T05:00:14.776Z,86.98
2019-01-11T05:02:44.265Z,87.26
2019-01-11T05:05:13.841Z,86.68
2019-01-11T05:07:43.560Z,86.77
2019-01-11T05:10:14.340Z,86.36
2019-01-11T05:12:43.850Z,86.32
2019-01-11T05:15:13.514Z,86.63
2019-01-11T05:17:42.977Z,85.76
2019-01-11T05:20:17.866Z,86.20
2019-01-11T05:22:50.569Z,86.32
2019-01-11T05:25:22.954Z,86.60
2019-01-11T05:27:52.787Z,87.37
2019-01-11T05:30:24.073Z,86.82
2019-01-11T05:32:53.947Z,87.41
2019-01-11T05:35:26.038Z,86.74
2019-01-11T05:38:04.263Z,86.55
2019-01-11T05:40:33.692Z,87.10
2019-01-11T05:43:03.256Z,86.29
2019-01-11T05:45:32.786Z,86.52
2019-01-11T05:48:02.199Z,86.09
2019-01-11T05:50:31.604Z,85.70
2019-01-11T05:53:01.151Z,85.48
2019-01-11T05:55:55.652Z,85.63
2019-01-11T05:58:32.834Z,85.92
2019-01-11T06:01:02.327Z,85.78
2019-01-11T06:03:31.846Z,85.26
2019-01-11T06:06:01.584Z,85.43
2019-01-11T06:08:31.780Z,85.16
2019-01-11T06:11:01.173Z,84.66
2019-01-11T06:13:30.713Z,83.97
2019-01-11T06:16:00.130Z,83.83
2019-01-11T06:18:29.688Z,83.97
2019-01-11T06:20:59.226Z,83.84
2019-01-11T06:23:28.708Z,82.63
2019-01-11T06:25:58.099Z,82.11
2019-01-11T06:28:27.812Z,81.87
2019-01-11T06:30:57.496Z,80.90
2019-01-11T06:33:26.976Z,80.93
2019-01-11T06:35:56.598Z,81.66
2019-01-11T06:38:26.102Z,81.68
2019-01-11T06:40:55.656Z,81.69
2019-01-11T06:43:25.248Z,81.67
2019-01-11T06:45:54.724Z,81.46
2019-01-11T06:48:43.191Z,81.25
2019-01-11T06:51:12.838Z,80.68
2019-01-11T06:53:42.236Z,80.41
2019-01-11T06:56:12.120Z,80.42
2019-01-11T06:58:41.704Z,79.75
2019-01-11T07:01:11.130Z,80.46
2019-01-11T07:03:40.788Z,80.54
2019-01-11T07:06:10.277Z,80.53
2019-01-11T07:08:39.784Z,80.10
2019-01-11T07:11:09.223Z,79.84
2019-01-11T07:13:38.711Z,79.77
2019-01-11T07:16:08.183Z,79.57
2019-01-11T07:18:37.616Z,79.14
2019-01-11T07:21:07.093Z,79.28
2019-01-11T07:23:36.673Z,79.88
2019-01-11T07:26:06.243Z,80.53
2019-01-11T07:28:35.689Z,80.64
2019-01-11T07:31:09.404Z,80.62
2019-01-11T07:33:39.246Z,80.92
2019-01-11T07:36:26.083Z,81.64
2019-01-11T07:38:55.812Z,81.61
2019-01-11T07:41:25.684Z,81.59
2019-01-11T07:43:55.063Z,81.06
2019-01-11T07:46:24.536Z,80.43
2019-01-11T07:48:54.052Z,80.42
2019-01-11T07:51:23.534Z,81.26
2019-01-11T07:53:52.982Z,81.84
2019-01-11T07:56:22.502Z,81.46
2019-01-11T07:58:52.015Z,81.33
2019-01-11T08:01:21.529Z,81.44
2019-01-11T08:03:51.191Z,80.48
2019-01-11T08:06:20.673Z,78.95
2019-01-11T08:08:50.215Z,78.65
2019-01-11T08:11:19.791Z,78.25
2019-01-11T08:13:49.188Z,77.89
2019-01-11T08:16:18.716Z,77.20
2019-01-11T08:18:48.124Z,77.61
2019-01-11T08:21:17.533Z,77.07
2019-01-11T08:23:47.262Z,76.43
2019-01-11T08:26:17.015Z,76.26
2019-01-11T08:28:46.485Z,76.42
2019-01-11T08:31:16.116Z,75.78
2019-01-11T08:33:45.629Z,75.48
2019-01-11T08:36:15.201Z,76.48
2019-01-11T08:38:44.783Z,76.72
2019-01-11T08:41:14.228Z,77.06
2019-01-11T08:43:43.739Z,77.54
2019-01-11T08:46:13.504Z,76.80
2019-01-11T08:48:42.917Z,76.68
2019-01-11T08:51:12.324Z,78.64
2019-01-11T08:53:41.867Z,78.65
2019-01-11T08:56:11.259Z,79.44
2019-01-11T08:58:40.985Z,79.12
2019-01-11T09:01:10.513Z,78.77
2019-01-11T09:03:39.895Z,78.47
2019-01-11T09:06:12.086Z,77.90
2019-01-11T09:08:50.591Z,76.60
2019-01-11T09:11:20.947Z,75.76
2019-01-11T09:13:50.494Z,74.62
2019-01-11T09:16:20.963Z,74.84
2019-01-11T09:18:55.441Z,74.18
2019-01-11T09:21:25.599Z,73.52
2019-01-11T09:23:55.081Z,72.62
2019-01-11T09:26:25.582Z,73.62
2019-01-11T09:28:56.282Z,72.73
2019-01-11T09:31:25.785Z,72.73
2019-01-11T09:33:55.200Z,72.56
2019-01-11T09:36:24.734Z,73.06
2019-01-11T09:38:54.158Z,72.47
2019-01-11T09:41:23.700Z,71.56
2019-01-11T09:43:53.242Z,71.30
2019-01-11T09:46:22.716Z,70.11
2019-01-11T09:48:52.308Z,70.18
2019-01-11T09:51:21.798Z,70.04
2019-01-11T09:53:51.392Z,69.81
2019-01-11T09:56:20.891Z,70.63
2019-01-11T09:58:50.668Z,70.10
2019-01-11T10:01:20.358Z,69.25
2019-01-11T10:03:49.891Z,69.22
2019-01-11T10:06:19.486Z,68.79
2019-01-11T10:08:48.886Z,68.87
2019-01-11T10:11:18.275Z,69.05
2019-01-11T10:13:47.993Z,67.96
2019-01-11T10:16:17.403Z,68.40
2019-01-11T10:18:46.910Z,67.78
2019-01-11T10:21:22.143Z,68.09
2019-01-11T10:23:48.417Z,68.19
2019-01-11T10:26:18.014Z,68.21
2019-01-11T10:28:48.180Z,67.95
2019-01-11T10:31:17.615Z,66.75
2019-01-11T10:33:47.020Z,66.91
2019-01-11T10:36:16.454Z,67.08
2019-01-11T10:38:45.965Z,66.75
2019-01-11T10:41:15.476Z,67.19
2019-01-11T10:43:44.878Z,67.13
2019-01-11T10:46:49.133Z,66.67
2019-01-11T10:49:18.347Z,67.23
2019-01-11T10:51:48.300Z,66.61
2019-01-11T10:54:28.318Z,66.93
2019-01-11T10:56:57.775Z,66.89
2019-01-11T10:59:27.289Z,66.77
2019-01-11T11:01:56.777Z,66.73
2019-01-11T11:04:26.186Z,66.39
2019-01-11T11:06:55.664Z,66.35
2019-01-11T11:09:25.258Z,66.06
2019-01-11T11:11:54.701Z,65.56
2019-01-11T11:14:24.098Z,65.93
2019-01-11T11:16:53.611Z,65.50
2019-01-11T11:19:23.084Z,65.73
2019-01-11T11:21:52.516Z,65.67
2019-01-11T11:24:21.942Z,63.51
2019-01-11T11:26:51.430Z,63.34
2019-01-11T11:29:20.925Z,63.54
2019-01-11T11:31:50.418Z,62.68
2019-01-11T11:34:28.987Z,63.25
2019-01-11T11:37:00.172Z,62.28
2019-01-11T11:39:29.560Z,61.88
2019-01-11T11:41:58.988Z,61.64
2019-01-11T11:44:28.578Z,61.34
2019-01-11T11:46:58.024Z,61.33
2019-01-11T11:49:27.416Z,61.28
2019-01-11T11:51:56.961Z,60.83
2019-01-11T11:54:26.465Z,60.61
2019-01-11T11:56:55.934Z,60.85
2019-01-11T11:59:25.409Z,61.14
2019-01-11T12:01:54.859Z,61.06
2019-01-11T12:04:24.364Z,61.56
2019-01-11T12:06:53.850Z,61.25
2019-01-11T12:09:23.248Z,60.52
2019-01-11T12:11:52.694Z,60.62
2019-01-11T12:14:22.405Z,61.53
2019-01-11T12:16:51.854Z,60.90
2019-01-11T12:19:21.329Z,61.02
2019-01-11T12:21:50.943Z,60.68
2019-01-11T12:24:20.304Z,60.94
2019-01-11T12:26:49.881Z,60.94
2019-01-11T12:29:19.585Z,60.97
2019-01-11T12:31:49.034Z,60.48
2019-01-11T12:34:18.440Z,59.79
2019-01-11T12:36:48.093Z,59.84
2019-01-11T12:39:17.582Z,60.32
2019-01-11T12:41:47.005Z,60.13
2019-01-11T12:44:16.437Z,60.09
2019-01-11T12:46:45.884Z,60.27
2019-01-11T12:49:15.386Z,59.56
2019-01-11T12:51:44.910Z,59.27
2019-01-11T12:54:14.420Z,59.45
2019-01-11T12:56:43.947Z,59.33
2019-01-11T12:59:13.377Z,58.92
2019-01-11T13:01:42.877Z,59.61
2019-01-11T13:04:12.489Z,59.39
2019-01-11T13:06:42.123Z,59.25
2019-01-11T13:09:11.649Z,59.88
2019-01-11T13:11:41.230Z,58.94
2019-01-11T13:14:10.776Z,58.96
2019-01-11T13:16:52.220Z,58.59
2019-01-11T13:19:21.680Z,58.93
2019-01-11T13:21:51.146Z,59.36
2019-01-11T13:24:20.658Z,58.94
2019-01-11T13:26:50.232Z,59.26
2019-01-11T13:29:19.717Z,59.06
2019-01-11T13:31:49.200Z,59.21
2019-01-11T13:34:18.823Z,58.85
2019-01-11T13:36:53.774Z,58.82
2019-01-11T13:39:19.519Z,59.21
2019-01-11T13:41:49.111Z,59.78
2019-01-11T13:44:18.540Z,60.17
2019-01-11T13:46:48.014Z,60.85
2019-01-11T13:49:17.689Z,61.93
2019-01-11T13:51:47.150Z,62.98
2019-01-11T13:54:16.589Z,63.52
2019-01-11T13:56:46.101Z,60.95
2019-01-11T13:59:15.646Z,60.51
2019-01-11T14:01:45.152Z,60.53
2019-01-11T14:04:14.897Z,61.03
2019-01-11T14:06:44.460Z,61.54
2019-01-11T14:09:13.984Z,61.28
2019-01-11T14:11:43.504Z,60.54
2019-01-11T14:14:13.010Z,60.43
2019-01-11T14:16:42.480Z,60.41
2019-01-11T14:19:11.932Z,60.92
2019-01-11T14:21:41.450Z,61.24
2019-01-11T14:24:11.047Z,61.92
2019-01-11T14:26:40.559Z,61.71
2019-01-11T14:29:09.997Z,62.18
2019-01-11T14:31:39.497Z,62.66
2019-01-11T14:34:09.244Z,63.18
2019-01-11T14:36:38.704Z,62.84
2019-01-11T14:39:09.496Z,62.81
2019-01-11T14:41:39.328Z,63.22
2019-01-11T14:44:08.836Z,63.75
2019-01-11T14:46:38.313Z,64.01
2019-01-11T14:49:07.794Z,63.77
2019-01-11T14:51:37.266Z,64.03
2019-01-11T14:54:06.740Z,64.17
2019-01-11T14:56:36.268Z,64.48
2019-01-11T14:59:05.824Z,64.99
2019-01-11T15:01:35.307Z,65.69
2019-01-11T15:04:04.988Z,65.83
2019-01-11T15:06:35.873Z,66.25
2019-01-11T15:09:08.806Z,66.52
2019-01-11T15:11:38.277Z,67.12
2019-01-11T15:14:07.825Z,67.10
2019-01-11T15:16:37.370Z,67.10
2019-01-11T15:19:06.889Z,67.31
2019-01-11T15:21:36.371Z,67.41
2019-01-11T15:24:06.150Z,67.77
2019-01-11T15:26:35.754Z,68.25
2019-01-11T15:29:05.284Z,68.12
2019-01-11T15:31:34.822Z,68.76
2019-01-11T15:34:04.316Z,69.02
2019-01-11T15:36:33.799Z,69.31
2019-01-11T15:39:03.510Z,70.25
2019-01-11T15:41:33.010Z,70.62
2019-01-11T15:44:02.537Z,71.51
2019-01-11T15:46:32.060Z,71.97
2019-01-11T15:49:01.502Z,72.00
2019-01-11T15:51:32.087Z,72.03
2019-01-11T15:54:02.981Z,71.72
2019-01-11T15:56:32.462Z,71.25
2019-01-11T15:59:01.884Z,70.58
2019-01-11T16:01:31.576Z,70.20
2019-01-11T16:04:06.640Z,69.47
2019-01-11T16:06:37.616Z,69.58
2019-01-11T16:09:58.261Z,69.50
2019-01-11T16:12:36.171Z,68.84
2019-01-11T16:15:15.460Z,68.94
2019-01-11T16:17:45.001Z,68.88
2019-01-11T16:20:14.500Z,68.74
2019-01-11T16:22:43.978Z,68.56
2019-01-11T16:25:14.190Z,68.85
2019-01-11T16:27:43.705Z,68.63
2019-01-11T16:30:13.283Z,68.45
2019-01-11T16:32:42.787Z,68.92
2019-01-11T16:35:12.405Z,68.97
2019-01-11T16:37:41.850Z,69.26
2019-01-11T16:40:11.514Z,69.97
2019-01-11T16:42:40.965Z,70.12
2019-01-11T16:45:12.071Z,70.27
2019-01-11T16:47:41.571Z,70.31
2019-01-11T16:50:13.407Z,70.61
2019-01-11T16:52:46.423Z,71.33
2019-01-11T16:55:14.184Z,71.80
2019-01-11T16:57:43.651Z,72.13
2019-01-11T17:00:16.440Z,72.08
2019-01-11T17:02:45.938Z,72.38
2019-01-11T17:05:15.703Z,72.81
2019-01-11T17:07:45.157Z,72.47
2019-01-11T17:10:14.882Z,72.59
2019-01-11T17:12:44.321Z,72.05
2019-01-11T17:15:16.048Z,71.62
2019-01-11T17:17:45.661Z,71.76
2019-01-11T17:20:17.350Z,71.73
2019-01-11T17:22:52.742Z,71.61
2019-01-11T17:25:18.089Z,71.56
2019-01-11T17:27:47.557Z,71.61
2019-01-11T17:30:18.669Z,71.68
2019-01-11T17:32:48.382Z,71.36
2019-01-11T17:35:17.953Z,71.27
2019-01-11T17:37:47.407Z,71.84
2019-01-11T17:40:17.305Z,71.49
2019-01-11T17:42:46.788Z,72.06
2019-01-11T17:45:16.371Z,72.08
2019-01-11T17:47:46.004Z,70.99
2019-01-11T17:50:17.428Z,70.88
2019-01-11T17:52:47.119Z,71.02
2019-01-11T17:55:16.953Z,70.79
2019-01-11T17:57:46.494Z,71.01
2019-01-11T18:00:18.119Z,70.47
2019-01-11T18:02:47.705Z,70.47
2019-01-11T18:05:17.700Z,70.56
2019-01-11T18:07:47.154Z,70.37
2019-01-11T18:10:16.725Z,70.42
2019-01-11T18:12:46.378Z,70.27
2019-01-11T18:15:19.236Z,70.75
2019-01-11T18:17:49.128Z,70.82
2019-01-11T18:20:21.279Z,70.98
2019-01-11T18:22:50.733Z,71.19
2019-01-11T18:25:20.205Z,71.22
2019-01-11T18:27:49.703Z,71.54
2019-01-11T18:30:20.125Z,71.66
2019-01-11T18:32:52.161Z,72.17
2019-01-11T18:35:21.610Z,72.61
2019-01-11T18:37:51.070Z,72.51
2019-01-11T18:40:23.233Z,72.72
2019-01-11T18:42:52.704Z,72.86
2019-01-11T18:45:28.853Z,73.02
2019-01-11T18:47:57.851Z,72.84
2019-01-11T18:50:27.464Z,72.88
2019-01-11T18:52:57.280Z,72.97
2019-01-11T18:55:26.769Z,73.15
2019-01-11T18:57:56.265Z,73.05
2019-01-11T19:00:25.933Z,72.97
2019-01-11T19:02:55.469Z,73.25
2019-01-11T19:05:25.022Z,73.43
2019-01-11T19:07:54.525Z,72.78
2019-01-11T19:10:25.173Z,73.13
2019-01-11T19:12:54.666Z,73.15
2019-01-11T19:15:26.922Z,73.65
2019-01-11T19:17:56.564Z,74.21
2019-01-11T19:20:28.250Z,74.54
2019-01-11T19:22:58.029Z,74.63
2019-01-11T19:25:27.614Z,75.09
2019-01-11T19:27:57.531Z,74.59
2019-01-11T19:30:28.632Z,74.51
2019-01-11T19:32:58.215Z,74.54
2019-01-11T19:35:27.707Z,74.00
2019-01-11T19:37:57.127Z,73.83
2019-01-11T19:40:26.680Z,73.64
2019-01-11T19:42:56.232Z,73.79
2019-01-11T19:45:25.632Z,74.62
2019-01-11T19:47:55.307Z,75.63
2019-01-11T19:50:25.547Z,76.59
2019-01-11T19:52:55.104Z,77.08
2019-01-11T19:55:24.564Z,76.98
2019-01-11T19:57:54.060Z,76.43
2019-01-11T20:00:28.455Z,76.73
2019-01-11T20:02:57.942Z,76.23
2019-01-11T20:05:27.770Z,76.13
2019-01-11T20:07:57.291Z,75.60
2019-01-11T20:10:32.162Z,75.76
2019-01-11T20:13:01.657Z,75.26
2019-01-11T20:15:31.416Z,74.55
2019-01-11T20:18:01.462Z,74.38
2019-01-11T20:20:30.968Z,73.96
2019-01-11T20:23:02.445Z,73.61
2019-01-11T20:25:31.749Z,73.21
2019-01-11T20:28:01.283Z,72.77
2019-01-11T20:30:31.033Z,72.25
2019-01-11T20:33:00.497Z,72.43
2019-01-11T20:35:30.001Z,72.15
2019-01-11T20:37:59.665Z,72.52
2019-01-11T20:40:29.127Z,72.46
2019-01-11T20:42:58.626Z,72.24
2019-01-11T20:45:28.135Z,72.40
2019-01-11T20:47:57.705Z,72.26
2019-01-11T20:50:27.693Z,72.35
2019-01-11T20:52:57.717Z,72.63
2019-01-11T20:55:27.286Z,72.86
2019-01-11T20:57:56.973Z,72.21
2019-01-11T21:00:31.778Z,72.55
2019-01-11T21:03:01.669Z,72.73
2019-01-11T21:05:31.104Z,72.39
2019-01-11T21:08:00.720Z,72.29
2019-01-11T21:10:30.232Z,72.52
2019-01-11T21:12:59.727Z,71.83
2019-01-11T21:15:29.239Z,71.56
2019-01-11T21:17:58.720Z,71.24
2019-01-11T21:20:28.424Z,71.27
2019-01-11T21:22:57.970Z,70.62
2019-01-11T21:25:27.378Z,70.37
2019-01-11T21:27:56.940Z,70.44
2019-01-11T21:30:28.630Z,70.05
2019-01-11T21:32:59.435Z,69.92
2019-01-11T21:35:28.958Z,70.08
2019-01-11T21:37:58.505Z,70.19
2019-01-11T21:40:27.960Z,70.27
2019-01-11T21:42:57.574Z,70.12
2019-01-11T21:45:27.137Z,70.34
2019-01-11T21:47:56.591Z,70.19
2019-01-11T21:50:28.968Z,69.68
2019-01-11T21:52:58.884Z,70.04
2019-01-11T21:55:28.275Z,70.10
2019-01-11T21:57:57.731Z,70.13
2019-01-11T22:00:42.204Z,70.05
2019-01-11T22:03:19.566Z,69.92
2019-01-11T22:05:49.011Z,69.91
2019-01-11T22:08:18.567Z,69.71
2019-01-11T22:10:48.067Z,70.00
2019-01-11T22:13:17.540Z,69.85
2019-01-11T22:15:47.012Z,69.62
2019-01-11T22:18:16.510Z,69.59
2019-01-11T22:20:46.067Z,69.77
2019-01-11T22:23:15.551Z,69.86
2019-01-11T22:25:45.180Z,69.50
2019-01-11T22:28:14.694Z,69.68
2019-01-11T22:30:44.116Z,69.65
2019-01-11T22:33:13.585Z,69.58
2019-01-11T22:35:43.527Z,69.75
2019-01-11T22:38:12.999Z,69.81
2019-01-11T22:40:42.427Z,69.61
2019-01-11T22:43:11.913Z,69.59
2019-01-11T22:45:41.423Z,69.54
2019-01-11T22:48:10.900Z,69.42
2019-01-11T22:50:40.358Z,69.79
2019-01-11T22:53:09.866Z,69.89
2019-01-11T22:55:39.306Z,69.75
2019-01-11T22:58:09.056Z,69.88
2019-01-11T23:01:06.907Z,69.84
2019-01-11T23:03:43.187Z,70.03
2019-01-11T23:06:46.545Z,70.16
2019-01-11T23:09:17.772Z,69.86
2019-01-11T23:12:14.588Z,70.06
2019-01-11T23:14:44.182Z,69.82
2019-01-11T23:17:46.812Z,69.69
2019-01-11T23:20:16.602Z,69.28
2019-01-11T23:22:46.097Z,69.51
2019-01-11T23:25:15.549Z,70.15
2019-01-11T23:27:44.978Z,69.65
2019-01-11T23:30:17.045Z,69.82
2019-01-11T23:32:46.584Z,69.75
2019-01-11T23:35:16.217Z,69.49
2019-01-11T23:37:45.701Z,69.63
2019-01-11T23:40:17.792Z,69.00
2019-01-11T23:42:47.261Z,69.28
2019-01-11T23:45:16.706Z,69.09
2019-01-11T23:47:46.209Z,68.87
2019-01-11T23:50:17.616Z,69.21
2019-01-11T23:52:47.056Z,69.09
2019-01-11T23:55:16.550Z,69.27
2019-01-11T23:57:46.090Z,68.89
